createdAt,value
2019-03-06T00:01:28.955Z,14.63
2019-03-06T00:04:00.094Z,13.87
2019-03-06T00:06:29.811Z,14.03
2019-03-06T00:09:01.174Z,14.80
2019-03-06T00:11:31.773Z,14.50
2019-03-06T00:14:01.669Z,14.90
2019-03-06T00:16:30.840Z,15.33
2019-03-06T00:19:01.983Z,14.87
2019-03-06T00:21:32.469Z,16.63
2019-03-06T00:24:04.342Z,15.77
2019-03-06T00:26:35.336Z,15.77
2019-03-06T00:29:04.835Z,15.93
2019-03-06T00:31:34.311Z,15.60
2019-03-06T00:34:03.759Z,15.93
2019-03-06T00:36:36.156Z,16.43
2019-03-06T00:39:09.030Z,16.77
2019-03-06T00:41:45.225Z,16.83
2019-03-06T00:44:14.659Z,17.17
2019-03-06T00:46:44.136Z,18.17
2019-03-06T00:49:13.569Z,18.00
2019-03-06T00:51:42.784Z,19.43
2019-03-06T00:54:12.393Z,17.73
2019-03-06T00:56:43.322Z,19.03
2019-03-06T00:59:14.840Z,19.20
2019-03-06T01:01:44.284Z,19.10
2019-03-06T01:04:14.268Z,17.93
2019-03-06T01:06:44.519Z,19.07
2019-03-06T01:09:13.969Z,21.77
2019-03-06T01:11:43.522Z,20.73
2019-03-06T01:14:12.839Z,21.60
2019-03-06T01:16:45.245Z,23.50
2019-03-06T01:19:14.706Z,24.00
2019-03-06T01:21:49.656Z,23.37
2019-03-06T01:24:19.110Z,23.47
2019-03-06T01:26:48.869Z,23.67
2019-03-06T01:29:18.062Z,24.40
2019-03-06T01:31:47.590Z,23.70
2019-03-06T01:34:31.282Z,22.37
2019-03-06T01:37:24.054Z,23.37
2019-03-06T01:40:12.658Z,22.50
2019-03-06T01:42:53.418Z,22.70
2019-03-06T01:45:24.728Z,22.10
2019-03-06T01:47:54.213Z,20.20
2019-03-06T01:50:23.404Z,21.73
2019-03-06T01:52:54.163Z,22.43
2019-03-06T01:55:23.903Z,21.90
2019-03-06T01:57:53.086Z,20.87
2019-03-06T02:00:23.570Z,22.83
2019-03-06T02:02:53.046Z,21.87
2019-03-06T02:05:23.589Z,21.47
2019-03-06T02:07:53.072Z,21.17
2019-03-06T02:10:23.032Z,21.10
2019-03-06T02:12:52.218Z,21.03
2019-03-06T02:15:24.853Z,21.97
2019-03-06T02:17:54.328Z,19.80
2019-03-06T02:20:23.529Z,20.10
2019-03-06T02:22:53.395Z,19.03
2019-03-06T02:25:22.880Z,20.60
2019-03-06T02:27:53.331Z,19.17
2019-03-06T02:30:25.554Z,18.07
2019-03-06T02:32:54.750Z,18.93
2019-03-06T02:35:24.797Z,20.37
2019-03-06T02:37:55.014Z,18.80
2019-03-06T02:40:27.495Z,18.33
2019-03-06T02:43:01.015Z,17.77
2019-03-06T02:45:31.025Z,17.57
2019-03-06T02:48:02.512Z,17.67
2019-03-06T02:50:32.577Z,18.23
2019-03-06T02:53:05.569Z,18.53
2019-03-06T02:55:34.768Z,17.57
2019-03-06T02:58:12.301Z,18.50
2019-03-06T03:01:00.192Z,18.27
2019-03-06T03:03:49.596Z,18.33
2019-03-06T03:06:32.613Z,18.70
2019-03-06T03:09:02.100Z,18.53
2019-03-06T03:11:31.592Z,17.83
2019-03-06T03:14:03.399Z,17.90
2019-03-06T03:16:35.234Z,17.67
2019-03-06T03:19:10.065Z,18.47
2019-03-06T03:21:39.605Z,17.13
2019-03-06T03:24:09.882Z,17.07
2019-03-06T03:26:39.447Z,18.30
2019-03-06T03:29:09.400Z,17.47
2019-03-06T03:31:39.945Z,18.17
2019-03-06T03:34:10.525Z,17.43
2019-03-06T03:36:39.690Z,19.10
2019-03-06T03:39:09.346Z,18.50
2019-03-06T03:41:38.818Z,17.50
2019-03-06T03:44:07.975Z,17.27
2019-03-06T03:46:37.708Z,18.67
2019-03-06T03:49:06.913Z,17.40
2019-03-06T03:51:36.532Z,17.40
2019-03-06T03:54:06.702Z,17.70
2019-03-06T03:56:36.972Z,17.17
2019-03-06T03:59:09.423Z,17.57
2019-03-06T04:01:38.629Z,16.07
2019-03-06T04:04:08.651Z,16.57
2019-03-06T04:06:39.387Z,16.93
2019-03-06T04:09:09.589Z,16.27
2019-03-06T04:11:44.242Z,15.90
2019-03-06T04:14:14.215Z,15.80
2019-03-06T04:16:44.056Z,16.43
2019-03-06T04:19:14.604Z,17.70
2019-03-06T04:21:44.083Z,16.70
2019-03-06T04:24:13.257Z,16.80
2019-03-06T04:26:42.724Z,16.73
2019-03-06T04:29:12.092Z,16.80
2019-03-06T04:31:41.269Z,16.90
2019-03-06T04:34:14.062Z,17.73
2019-03-06T04:36:44.546Z,16.50
2019-03-06T04:39:14.675Z,16.70
2019-03-06T04:41:49.631Z,16.17
2019-03-06T04:44:19.171Z,16.27
2019-03-06T04:46:48.610Z,15.23
2019-03-06T04:49:18.273Z,16.33
2019-03-06T04:51:48.719Z,16.83
2019-03-06T04:54:18.248Z,16.23
2019-03-06T04:56:49.539Z,15.53
2019-03-06T04:59:18.725Z,15.70
2019-03-06T05:01:47.989Z,14.43
2019-03-06T05:04:17.168Z,15.60
2019-03-06T05:06:46.601Z,13.93
2019-03-06T05:09:16.128Z,13.30
2019-03-06T05:11:46.843Z,13.67
2019-03-06T05:14:16.817Z,13.87
2019-03-06T05:17:08.610Z,13.90
2019-03-06T05:19:39.143Z,12.03
2019-03-06T05:22:09.427Z,13.33
2019-03-06T05:24:38.914Z,12.20
2019-03-06T05:27:08.108Z,13.37
2019-03-06T05:29:39.146Z,11.70
2019-03-06T05:32:30.792Z,12.20
2019-03-06T05:35:02.171Z,11.40
2019-03-06T05:38:02.741Z,11.37
2019-03-06T05:40:33.004Z,10.80
2019-03-06T05:43:02.185Z,10.40
2019-03-06T05:45:31.360Z,9.93
2019-03-06T05:48:01.004Z,10.57
2019-03-06T05:50:31.735Z,10.70
2019-03-06T05:53:01.997Z,9.67
2019-03-06T05:55:32.112Z,10.47
2019-03-06T05:58:02.807Z,10.37
2019-03-06T06:00:32.629Z,10.43
2019-03-06T06:03:02.193Z,11.67
2019-03-06T06:05:32.472Z,10.10
2019-03-06T06:08:03.254Z,9.83
2019-03-06T06:10:35.192Z,9.23
2019-03-06T06:13:04.613Z,10.30
2019-03-06T06:15:35.544Z,10.33
2019-03-06T06:18:05.183Z,9.20
2019-03-06T06:20:35.317Z,9.57
2019-03-06T06:23:30.746Z,10.30
2019-03-06T06:26:02.172Z,9.23
2019-03-06T06:28:32.854Z,10.27
2019-03-06T06:31:02.394Z,9.63
2019-03-06T06:33:35.151Z,9.80
2019-03-06T06:36:05.764Z,9.97
2019-03-06T06:38:37.563Z,10.03
2019-03-06T06:41:09.440Z,10.77
2019-03-06T06:43:38.618Z,9.57
2019-03-06T06:46:07.811Z,9.93
2019-03-06T06:48:37.016Z,9.73
2019-03-06T06:51:47.537Z,10.40
2019-03-06T06:54:37.775Z,9.90
2019-03-06T06:57:18.389Z,9.87
2019-03-06T07:00:11.737Z,9.20
2019-03-06T07:03:27.757Z,9.67
2019-03-06T07:06:09.813Z,8.83
2019-03-06T07:09:01.885Z,8.73
2019-03-06T07:11:49.132Z,8.70
2019-03-06T07:14:40.822Z,9.57
2019-03-06T07:17:34.712Z,8.83
2019-03-06T07:20:29.511Z,8.20
2019-03-06T07:23:18.011Z,8.47
2019-03-06T07:26:09.148Z,8.53
2019-03-06T07:28:45.255Z,8.27
2019-03-06T07:31:34.356Z,8.50
2019-03-06T07:34:10.877Z,8.13
2019-03-06T07:37:01.296Z,8.10
2019-03-06T07:39:58.404Z,8.27
2019-03-06T07:42:42.276Z,8.40
2019-03-06T07:46:05.756Z,7.60
2019-03-06T07:48:54.933Z,8.80
2019-03-06T07:51:42.555Z,8.17
2019-03-06T07:54:43.146Z,8.33
2019-03-06T07:57:39.019Z,7.03
2019-03-06T08:00:20.071Z,7.63
2019-03-06T08:03:36.544Z,8.07
2019-03-06T08:06:07.017Z,7.87
2019-03-06T08:08:39.288Z,7.87
2019-03-06T08:11:15.869Z,7.73
2019-03-06T08:13:51.969Z,8.13
2019-03-06T08:16:39.074Z,7.80
2019-03-06T08:19:30.115Z,7.20
2019-03-06T08:22:10.857Z,6.53
2019-03-06T08:24:59.062Z,7.37
2019-03-06T08:27:28.405Z,7.23
2019-03-06T08:29:58.453Z,7.40
2019-03-06T08:32:33.565Z,6.83
2019-03-06T08:35:09.831Z,6.57
2019-03-06T08:37:39.007Z,6.83
2019-03-06T08:40:11.936Z,6.43
2019-03-06T08:42:42.635Z,6.23
2019-03-06T08:45:13.592Z,6.20
2019-03-06T08:47:55.189Z,6.33
2019-03-06T08:50:43.861Z,6.87
2019-03-06T08:53:21.401Z,6.23
2019-03-06T08:56:04.836Z,6.27
2019-03-06T08:59:05.962Z,5.60
2019-03-06T09:02:00.176Z,5.70
2019-03-06T09:04:44.428Z,5.97
2019-03-06T09:07:44.032Z,5.27
2019-03-06T09:10:32.560Z,5.10
2019-03-06T09:13:26.515Z,5.00
2019-03-06T09:16:13.853Z,4.47
2019-03-06T09:19:01.990Z,4.93
2019-03-06T09:21:51.285Z,5.07
2019-03-06T09:24:39.518Z,4.50
2019-03-06T09:27:27.098Z,4.67
2019-03-06T09:30:35.146Z,4.60
2019-03-06T09:33:29.895Z,4.50
2019-03-06T09:36:24.859Z,4.93
2019-03-06T09:39:11.967Z,4.63
2019-03-06T09:42:03.898Z,4.10
2019-03-06T09:44:38.702Z,4.27
2019-03-06T09:47:27.759Z,3.40
2019-03-06T09:50:34.196Z,3.67
2019-03-06T09:53:22.301Z,3.80
2019-03-06T09:56:02.725Z,3.10
2019-03-06T09:59:04.186Z,3.43
2019-03-06T10:01:50.829Z,2.70
2019-03-06T10:04:42.488Z,3.50
2019-03-06T10:07:40.879Z,2.70
2019-03-06T10:10:47.568Z,2.67
2019-03-06T10:13:30.234Z,2.50
2019-03-06T10:16:23.280Z,2.70
2019-03-06T10:19:12.254Z,2.63
2019-03-06T10:21:43.006Z,2.50
2019-03-06T10:24:13.181Z,2.20
2019-03-06T10:26:43.705Z,2.77
2019-03-06T10:29:14.019Z,2.27
2019-03-06T10:31:46.023Z,2.10
2019-03-06T10:34:15.370Z,2.17
2019-03-06T10:36:44.629Z,2.40
2019-03-06T10:39:17.267Z,2.30
2019-03-06T10:41:46.596Z,2.00
2019-03-06T10:44:18.915Z,2.50
2019-03-06T10:46:49.713Z,2.40
2019-03-06T10:49:19.167Z,2.10
2019-03-06T10:51:48.350Z,1.67
2019-03-06T10:54:17.838Z,2.63
2019-03-06T10:56:47.004Z,1.60
2019-03-06T10:59:16.871Z,1.67
2019-03-06T11:01:46.062Z,1.63
2019-03-06T11:04:40.597Z,1.37
2019-03-06T11:07:09.867Z,4.67
2019-03-06T11:09:40.441Z,5.40
2019-03-06T11:12:09.607Z,2.50
2019-03-06T11:14:40.630Z,1.60
2019-03-06T11:17:10.220Z,1.60
2019-03-06T11:19:45.017Z,1.43
2019-03-06T11:22:15.514Z,1.40
2019-03-06T11:24:46.491Z,1.90
2019-03-06T11:27:16.711Z,1.40
2019-03-06T11:29:46.490Z,1.60
2019-03-06T11:32:17.917Z,1.90
2019-03-06T11:34:50.139Z,1.50
2019-03-06T11:37:19.896Z,1.17
2019-03-06T11:39:51.719Z,2.10
2019-03-06T11:42:22.294Z,2.50
2019-03-06T11:44:51.527Z,1.30
2019-03-06T11:47:23.185Z,1.30
2019-03-06T11:49:52.877Z,1.27
2019-03-06T11:52:22.567Z,4.23
2019-03-06T11:54:51.807Z,1.57
2019-03-06T11:57:20.975Z,1.60
2019-03-06T11:59:51.731Z,1.30
2019-03-06T12:02:21.569Z,1.50
2019-03-06T12:04:50.753Z,2.70
2019-03-06T12:07:20.184Z,1.40
2019-03-06T12:09:49.379Z,1.70
2019-03-06T12:12:18.630Z,1.53
2019-03-06T12:14:47.828Z,1.83
2019-03-06T12:17:17.290Z,1.40
2019-03-06T12:19:46.486Z,1.57
2019-03-06T12:22:16.023Z,1.67
2019-03-06T12:24:45.219Z,3.50
2019-03-06T12:27:14.691Z,1.77
2019-03-06T12:29:44.518Z,1.40
2019-03-06T12:32:14.214Z,1.40
2019-03-06T12:34:43.974Z,2.70
2019-03-06T12:37:15.933Z,1.60
2019-03-06T12:39:47.423Z,1.93
2019-03-06T12:42:16.587Z,1.80
2019-03-06T12:44:55.593Z,2.20
2019-03-06T12:47:25.834Z,1.80
2019-03-06T12:50:05.677Z,2.30
2019-03-06T12:52:32.362Z,1.80
2019-03-06T12:55:04.471Z,1.90
2019-03-06T12:57:43.602Z,2.10
2019-03-06T13:00:27.806Z,3.30
2019-03-06T13:02:59.299Z,1.40
2019-03-06T13:05:31.394Z,2.70
2019-03-06T13:08:02.118Z,1.23
2019-03-06T13:10:37.617Z,1.50
2019-03-06T13:13:09.491Z,1.70
2019-03-06T13:15:45.537Z,2.63
2019-03-06T13:18:15.301Z,3.37
2019-03-06T13:20:47.377Z,1.73
2019-03-06T13:23:18.427Z,2.03
2019-03-06T13:25:51.228Z,1.00
2019-03-06T13:28:21.115Z,1.00
2019-03-06T13:30:52.853Z,1.00
2019-03-06T13:33:33.870Z,1.00
2019-03-06T13:36:03.417Z,1.30
2019-03-06T13:38:37.152Z,1.20
2019-03-06T13:41:08.584Z,1.50
2019-03-06T13:43:44.438Z,1.40
2019-03-06T13:46:16.922Z,1.03
2019-03-06T13:48:46.969Z,1.27
2019-03-06T13:51:17.480Z,1.20
2019-03-06T13:53:46.982Z,1.00
2019-03-06T13:56:29.211Z,1.20
2019-03-06T13:59:01.032Z,1.10
2019-03-06T14:01:32.135Z,1.30
2019-03-06T14:04:03.977Z,1.20
2019-03-06T14:06:35.036Z,1.20
2019-03-06T14:09:05.931Z,1.20
2019-03-06T14:11:40.533Z,1.00
2019-03-06T14:14:13.479Z,0.90
2019-03-06T14:16:44.189Z,1.10
2019-03-06T14:19:14.700Z,1.10
2019-03-06T14:21:44.680Z,1.30
2019-03-06T14:24:13.892Z,1.00
2019-03-06T14:26:43.790Z,1.30
2019-03-06T14:29:13.171Z,1.33
2019-03-06T14:31:42.583Z,1.40
2019-03-06T14:34:12.146Z,1.50
2019-03-06T14:36:42.159Z,1.00
2019-03-06T14:39:31.960Z,1.50
2019-03-06T14:42:02.209Z,1.00
2019-03-06T14:44:33.648Z,1.10
2019-03-06T14:47:02.843Z,1.47
2019-03-06T14:49:33.885Z,1.50
2019-03-06T14:52:07.452Z,1.37
2019-03-06T14:54:35.577Z,3.00
2019-03-06T14:57:05.132Z,3.03
2019-03-06T14:59:36.994Z,2.60
2019-03-06T15:02:07.045Z,2.80
2019-03-06T15:04:36.514Z,1.80
2019-03-06T15:07:06.542Z,1.43
2019-03-06T15:09:37.576Z,1.40
2019-03-06T15:12:09.949Z,1.67
2019-03-06T15:14:43.845Z,1.30
2019-03-06T15:17:13.449Z,1.50
2019-03-06T15:19:44.013Z,1.80
2019-03-06T15:22:15.227Z,1.60
2019-03-06T15:24:49.062Z,1.27
2019-03-06T15:27:21.211Z,1.60
2019-03-06T15:29:53.245Z,1.57
2019-03-06T15:32:25.481Z,1.63
2019-03-06T15:34:56.722Z,1.67
2019-03-06T15:37:25.897Z,1.87
2019-03-06T15:39:59.666Z,1.40
2019-03-06T15:42:34.102Z,1.40
2019-03-06T15:45:03.788Z,1.43
2019-03-06T15:47:33.905Z,1.40
2019-03-06T15:50:03.531Z,1.50
2019-03-06T15:52:35.625Z,1.30
2019-03-06T15:55:06.124Z,1.67
2019-03-06T15:57:37.432Z,1.20
2019-03-06T16:00:16.661Z,1.43
2019-03-06T16:02:48.658Z,1.43
2019-03-06T16:05:20.955Z,1.23
2019-03-06T16:07:51.485Z,1.50
2019-03-06T16:10:24.097Z,1.53
2019-03-06T16:12:56.942Z,1.20
2019-03-06T16:15:27.549Z,1.00
2019-03-06T16:17:59.871Z,0.93
2019-03-06T16:20:29.603Z,1.30
2019-03-06T16:22:58.771Z,1.50
2019-03-06T16:25:36.378Z,1.63
2019-03-06T16:28:04.023Z,1.80
2019-03-06T16:30:34.115Z,1.67
2019-03-06T16:33:05.313Z,1.27
2019-03-06T16:35:36.635Z,1.50
2019-03-06T16:38:09.198Z,1.30
2019-03-06T16:40:46.455Z,1.30
2019-03-06T16:43:18.343Z,1.40
2019-03-06T16:45:49.329Z,1.30
2019-03-06T16:48:21.302Z,1.30
2019-03-06T16:50:53.755Z,1.30
2019-03-06T16:53:33.159Z,0.97
2019-03-06T16:56:04.580Z,1.10
2019-03-06T16:58:34.126Z,1.20
2019-03-06T17:01:06.288Z,1.03
2019-03-06T17:03:37.846Z,1.40
2019-03-06T17:06:08.570Z,1.10
2019-03-06T17:08:41.329Z,2.90
2019-03-06T17:11:12.624Z,12.63
2019-03-06T17:13:47.421Z,8.77
2019-03-06T17:16:16.935Z,13.90
2019-03-06T17:18:47.893Z,8.93
2019-03-06T17:21:19.161Z,1.97
2019-03-06T17:23:49.819Z,2.73
2019-03-06T17:26:22.570Z,1.67
2019-03-06T17:28:53.695Z,2.53
2019-03-06T17:31:24.001Z,2.47
2019-03-06T17:33:53.027Z,2.27
2019-03-06T17:36:23.157Z,1.80
2019-03-06T17:38:54.442Z,3.70
2019-03-06T17:41:23.875Z,2.40
2019-03-06T17:43:53.381Z,4.30
2019-03-06T17:46:22.810Z,1.90
2019-03-06T17:48:52.237Z,3.63
2019-03-06T17:51:22.687Z,2.87
2019-03-06T17:53:55.382Z,4.07
2019-03-06T17:56:25.703Z,6.57
2019-03-06T17:58:56.715Z,4.73
2019-03-06T18:01:26.771Z,3.07
2019-03-06T18:04:09.015Z,2.17
2019-03-06T18:06:40.456Z,3.57
2019-03-06T18:09:09.976Z,2.77
2019-03-06T18:11:39.368Z,3.07
2019-03-06T18:14:09.921Z,2.20
2019-03-06T18:16:42.698Z,2.10
2019-03-06T18:19:12.083Z,1.70
2019-03-06T18:21:41.297Z,1.80
2019-03-06T18:24:10.767Z,1.67
2019-03-06T18:26:40.972Z,1.70
2019-03-06T18:29:11.160Z,1.83
2019-03-06T18:31:41.753Z,1.80
2019-03-06T18:34:10.917Z,1.93
2019-03-06T18:36:41.729Z,1.87
2019-03-06T18:39:21.193Z,1.83
2019-03-06T18:41:50.499Z,2.20
2019-03-06T18:44:20.460Z,1.77
2019-03-06T18:46:49.811Z,2.10
2019-03-06T18:49:19.216Z,4.83
2019-03-06T18:51:49.952Z,2.10
2019-03-06T18:54:22.174Z,2.37
2019-03-06T18:56:51.907Z,2.40
2019-03-06T18:59:21.140Z,1.87
2019-03-06T19:01:50.465Z,1.80
2019-03-06T19:04:19.844Z,1.63
2019-03-06T19:06:49.049Z,1.93
2019-03-06T19:09:19.715Z,1.67
2019-03-06T19:11:49.373Z,1.90
2019-03-06T19:14:18.572Z,2.00
2019-03-06T19:16:47.778Z,2.10
2019-03-06T19:19:16.957Z,2.20
2019-03-06T19:21:46.328Z,2.00
2019-03-06T19:24:16.826Z,2.13
2019-03-06T19:26:50.252Z,2.10
2019-03-06T19:29:21.513Z,2.60
2019-03-06T19:31:54.169Z,2.63
2019-03-06T19:34:23.326Z,3.60
2019-03-06T19:36:54.148Z,2.97
2019-03-06T19:39:23.656Z,3.00
2019-03-06T19:41:56.919Z,4.67
2019-03-06T19:44:26.503Z,5.00
2019-03-06T19:46:55.865Z,4.40
2019-03-06T19:49:25.601Z,3.23
2019-03-06T19:51:54.933Z,3.30
2019-03-06T19:54:24.121Z,4.57
2019-03-06T19:56:57.026Z,3.27
2019-03-06T19:59:26.348Z,3.00
2019-03-06T20:01:55.547Z,3.17
2019-03-06T20:04:25.068Z,3.10
2019-03-06T20:06:54.754Z,3.50
2019-03-06T20:09:25.971Z,2.53
2019-03-06T20:11:55.905Z,2.70
2019-03-06T20:14:25.851Z,3.30
2019-03-06T20:16:58.795Z,2.67
2019-03-06T20:19:30.884Z,2.30
2019-03-06T20:22:02.126Z,2.67
2019-03-06T20:24:31.709Z,2.53
2019-03-06T20:27:00.867Z,3.03
2019-03-06T20:29:30.591Z,2.53
2019-03-06T20:32:00.426Z,2.40
2019-03-06T20:34:29.914Z,3.97
2019-03-06T20:36:59.097Z,2.47
2019-03-06T20:39:28.296Z,2.90
2019-03-06T20:41:57.456Z,2.80
2019-03-06T20:44:27.481Z,3.20
2019-03-06T20:46:57.932Z,3.07
2019-03-06T20:49:27.799Z,3.00
2019-03-06T20:51:59.103Z,2.83
2019-03-06T20:54:30.333Z,2.97
2019-03-06T20:56:59.825Z,2.90
2019-03-06T20:59:34.210Z,4.00
2019-03-06T21:02:07.448Z,3.67
2019-03-06T21:04:38.287Z,3.43
2019-03-06T21:07:08.087Z,3.20
2019-03-06T21:09:38.812Z,3.57
2019-03-06T21:12:08.341Z,3.73
2019-03-06T21:14:39.934Z,3.30
2019-03-06T21:17:09.369Z,2.97
2019-03-06T21:19:38.529Z,3.97
2019-03-06T21:22:08.596Z,4.30
2019-03-06T21:24:42.157Z,3.90
2019-03-06T21:27:12.908Z,3.80
2019-03-06T21:29:42.070Z,4.23
2019-03-06T21:32:11.657Z,3.80
2019-03-06T21:34:41.093Z,5.80
2019-03-06T21:37:10.798Z,3.27
2019-03-06T21:39:43.155Z,5.73
2019-03-06T21:42:12.579Z,4.17
2019-03-06T21:44:41.795Z,4.50
2019-03-06T21:47:10.998Z,3.70
2019-03-06T21:49:41.442Z,4.20
2019-03-06T21:52:10.962Z,2.90
2019-03-06T21:54:41.229Z,5.90
2019-03-06T21:57:10.431Z,4.90
2019-03-06T21:59:39.922Z,4.43
2019-03-06T22:02:10.453Z,3.43
2019-03-06T22:04:42.583Z,3.50
2019-03-06T22:07:12.849Z,4.27
2019-03-06T22:09:47.693Z,5.60
2019-03-06T22:12:18.473Z,7.40
2019-03-06T22:14:48.311Z,4.57
2019-03-06T22:17:18.211Z,3.37
2019-03-06T22:19:48.031Z,3.53
2019-03-06T22:22:18.790Z,3.80
2019-03-06T22:24:50.328Z,3.20
2019-03-06T22:27:19.609Z,3.20
2019-03-06T22:29:53.185Z,3.00
2019-03-06T22:32:23.627Z,2.87
2019-03-06T22:34:53.535Z,2.67
2019-03-06T22:37:24.197Z,2.40
2019-03-06T22:39:55.386Z,2.40
2019-03-06T22:42:24.430Z,2.60
2019-03-06T22:44:54.574Z,2.90
2019-03-06T22:47:23.800Z,2.50
2019-03-06T22:50:00.914Z,2.60
2019-03-06T22:52:30.158Z,2.63
2019-03-06T22:54:59.378Z,4.40
2019-03-06T22:57:28.943Z,4.90
2019-03-06T22:59:58.101Z,3.80
2019-03-06T23:02:27.991Z,3.03
2019-03-06T23:04:57.301Z,3.37
2019-03-06T23:07:27.380Z,5.00
2019-03-06T23:09:59.908Z,5.77
2019-03-06T23:12:29.511Z,5.63
2019-03-06T23:14:58.737Z,7.73
2019-03-06T23:17:28.137Z,4.87
2019-03-06T23:19:57.347Z,3.53
2019-03-06T23:22:26.589Z,3.17
2019-03-06T23:24:55.768Z,3.10
2019-03-06T23:27:24.969Z,2.80
2019-03-06T23:29:54.274Z,2.50
2019-03-06T23:32:23.526Z,2.60
2019-03-06T23:34:53.414Z,2.87
2019-03-06T23:37:23.054Z,2.87
2019-03-06T23:39:52.233Z,2.27
2019-03-06T23:42:21.404Z,2.70
2019-03-06T23:44:50.614Z,2.57
2019-03-06T23:47:19.811Z,2.80
2019-03-06T23:49:49.198Z,2.63
2019-03-06T23:52:24.922Z,2.63
2019-03-06T23:54:54.104Z,2.53
2019-03-06T23:57:23.743Z,3.10
2019-03-06T23:59:52.931Z,3.00
